createdAt,value
2023-05-10T00:00:22.732Z,77.44
2023-05-10T00:01:22.864Z,77.34
2023-05-10T00:02:23.030Z,77.34
2023-05-10T00:03:23.109Z,77.34
2023-05-10T00:04:23.233Z,77.24
2023-05-10T00:28:30.218Z,79.21
2023-05-10T00:29:31.242Z,79.21
2023-05-10T00:30:31.294Z,79.17
2023-05-10T00:31:31.477Z,79.07
2023-05-10T00:32:31.538Z,78.87
2023-05-10T00:33:31.488Z,78.77
2023-05-10T00:34:31.645Z,78.66
2023-05-10T00:35:31.703Z,78.66
2023-05-10T00:36:31.788Z,78.56
2023-05-10T00:37:31.831Z,78.53
2023-05-10T00:38:31.909Z,78.42
2023-05-10T00:39:31.953Z,78.42
2023-05-10T00:40:32.056Z,78.33
2023-05-10T00:41:32.202Z,78.22
2023-05-10T00:42:32.268Z,78.22
2023-05-10T00:43:32.325Z,78.22
2023-05-10T01:32:57.522Z,80.71
2023-05-10T01:47:59.676Z,81.19
2023-05-10T01:49:00.691Z,81.29
2023-05-10T01:50:00.727Z,81.39
2023-05-10T01:51:00.806Z,81.39
2023-05-10T01:52:00.861Z,81.35
2023-05-10T01:53:01.150Z,81.35
2023-05-10T01:54:01.053Z,81.35
2023-05-10T01:55:01.171Z,81.31
2023-05-10T01:56:01.197Z,81.11
2023-05-10T01:57:01.389Z,81.11
2023-05-10T01:58:01.391Z,81.01
2023-05-10T01:59:01.443Z,80.71
2023-05-10T02:00:01.617Z,80.71
2023-05-10T02:01:01.774Z,80.71
2023-05-10T02:29:41.379Z,82.32
2023-05-10T02:30:42.500Z,82.28
2023-05-10T03:27:56.976Z,83.58
2023-05-10T03:28:57.931Z,83.58
2023-05-10T03:29:57.992Z,83.58
2023-05-10T03:30:58.062Z,83.37
2023-05-10T03:31:58.162Z,83.17
2023-05-10T03:44:49.053Z,83.17
2023-05-10T03:57:41.084Z,83.51
2023-05-10T04:15:46.740Z,84.47
2023-05-10T04:16:47.473Z,84.33
2023-05-10T04:50:49.158Z,84.12
2023-05-10T04:51:50.238Z,84.03
2023-05-10T04:52:51.919Z,84.03
2023-05-10T04:54:01.616Z,84.03
2023-05-10T04:54:50.349Z,84.03
2023-05-10T04:55:50.482Z,83.78
2023-05-10T04:56:50.481Z,83.68
2023-05-10T04:57:50.552Z,83.58
2023-05-10T04:58:50.611Z,83.58
2023-05-10T04:59:50.752Z,83.48
2023-05-10T05:00:50.779Z,83.27
2023-05-10T05:01:50.987Z,83.17
2023-05-10T05:08:53.635Z,83.27
2023-05-10T05:09:54.561Z,83.17
2023-05-10T05:10:54.732Z,83.27
2023-05-10T05:11:54.660Z,83.27
2023-05-10T05:12:54.689Z,83.17
2023-05-10T05:13:54.739Z,83.07
2023-05-10T05:14:54.877Z,82.97
2023-05-10T05:15:54.917Z,82.93
2023-05-10T05:16:55.009Z,82.82
2023-05-10T05:17:55.161Z,82.62
2023-05-10T05:18:55.149Z,82.52
2023-05-10T05:19:55.234Z,82.42
2023-05-10T05:37:06.421Z,83.27
2023-05-10T05:38:08.531Z,83.27
2023-05-10T05:39:16.311Z,83.48
2023-05-10T06:02:20.665Z,84.33
2023-05-10T06:03:22.720Z,84.33
2023-05-10T06:04:21.643Z,84.33
2023-05-10T06:05:21.727Z,84.33
2023-05-10T06:06:21.802Z,84.19
2023-05-10T06:07:21.898Z,83.98
2023-05-10T06:08:21.938Z,83.78
2023-05-10T06:09:22.071Z,83.68
2023-05-10T06:10:22.101Z,83.44
2023-05-10T06:11:22.194Z,83.23
2023-05-10T06:12:22.262Z,83.13
2023-05-10T06:13:22.381Z,82.93
2023-05-10T06:14:22.554Z,82.62
2023-05-10T06:15:22.559Z,82.62
2023-05-10T06:16:22.625Z,82.32
2023-05-10T06:17:22.701Z,82.28
2023-05-10T06:18:22.739Z,82.07
2023-05-10T06:19:22.813Z,82.07
2023-05-10T06:20:22.969Z,82.07
2023-05-10T06:21:23.009Z,82.07
2023-05-10T06:22:23.156Z,82.07
2023-05-10T06:23:23.196Z,82.07
2023-05-10T06:24:23.257Z,82.07
2023-05-10T06:25:23.356Z,82.07
2023-05-10T06:26:23.613Z,81.98
2023-05-10T06:38:42.096Z,82.97
2023-05-10T06:39:43.534Z,83.07
2023-05-10T06:41:04.977Z,83.17
2023-05-10T06:49:15.548Z,83.37
2023-05-10T07:32:23.649Z,85.55
2023-05-10T07:33:30.231Z,85.55
2023-05-10T07:41:56.805Z,85.41
2023-05-10T08:22:37.057Z,85.21
2023-05-10T08:23:38.160Z,85.00
2023-05-10T08:24:38.127Z,85.11
2023-05-10T08:25:38.279Z,84.90
2023-05-10T08:36:19.850Z,84.29
2023-05-10T08:37:20.757Z,84.29
2023-05-10T08:38:20.832Z,84.50
2023-05-10T08:39:29.837Z,84.09
2023-05-10T08:40:20.953Z,83.68
2023-05-10T08:41:21.013Z,83.58
2023-05-10T08:42:21.062Z,83.34
2023-05-10T08:43:21.219Z,83.44
2023-05-10T08:44:21.250Z,83.44
2023-05-10T08:45:21.367Z,83.54
2023-05-10T08:54:26.470Z,83.78
2023-05-10T09:11:38.071Z,85.21
2023-05-10T09:12:38.984Z,85.21
2023-05-10T09:13:38.945Z,85.31
2023-05-10T10:39:02.709Z,85.49
2023-05-10T11:22:33.001Z,84.82
2023-05-10T11:31:25.344Z,85.02
2023-05-10T11:32:26.261Z,84.61
2023-05-10T11:33:26.181Z,84.82
2023-05-10T11:34:26.167Z,85.02
2023-05-10T11:35:26.424Z,84.78
2023-05-10T12:02:05.423Z,83.76
2023-05-10T12:03:06.503Z,83.45
2023-05-10T12:04:06.844Z,82.80
2023-05-10T12:05:06.707Z,82.80
2023-05-10T12:06:06.663Z,81.88
2023-05-10T12:07:06.794Z,81.79
2023-05-10T12:08:06.914Z,81.79
2023-05-10T12:09:06.969Z,81.85
2023-05-10T12:10:07.121Z,82.05
2023-05-10T12:11:07.101Z,81.54
2023-05-10T12:38:55.702Z,81.72
2023-05-10T12:58:34.327Z,81.82
2023-05-10T12:59:19.385Z,82.03
2023-05-10T13:29:04.931Z,82.54
2023-05-10T13:34:43.061Z,82.33
2023-05-10T13:35:43.487Z,81.93
2023-05-10T13:36:43.506Z,81.99
2023-05-10T13:37:44.233Z,81.88
2023-05-10T13:38:43.681Z,81.88
2023-05-10T13:39:43.740Z,81.74
2023-05-10T13:40:43.870Z,81.44
2023-05-10T13:41:43.924Z,81.44
2023-05-10T13:42:44.026Z,81.13
2023-05-10T13:43:44.121Z,80.79
2023-05-10T13:44:44.175Z,80.38
2023-05-10T13:45:44.286Z,80.29
2023-05-10T13:46:44.597Z,80.18
2023-05-10T13:47:44.461Z,79.88
2023-05-10T13:48:44.588Z,79.27
2023-05-10T13:49:44.685Z,78.82
2023-05-10T14:03:01.891Z,79.50
2023-05-10T14:04:02.796Z,79.20
2023-05-10T14:05:02.814Z,79.30
2023-05-10T14:06:02.878Z,79.16
2023-05-10T14:07:02.995Z,79.16
2023-05-10T14:08:03.052Z,79.16
2023-05-10T14:09:03.224Z,78.96
2023-05-10T14:10:03.239Z,78.55
2023-05-10T14:11:03.328Z,78.41
2023-05-10T14:12:03.393Z,78.31
2023-05-10T14:13:03.509Z,78.31
2023-05-10T14:14:03.591Z,78.21
2023-05-10T14:15:03.657Z,78.21
2023-05-10T14:16:03.723Z,77.91
2023-05-10T14:17:03.910Z,77.77
2023-05-10T14:18:03.952Z,77.77
2023-05-10T14:19:04.249Z,77.77
2023-05-10T14:20:04.033Z,77.87
2023-05-10T14:21:04.131Z,77.67
2023-05-10T14:22:04.187Z,77.56
2023-05-10T14:23:04.330Z,77.56
2023-05-10T14:24:04.336Z,77.36
2023-05-10T14:25:04.434Z,77.36
2023-05-10T14:26:04.524Z,77.26
2023-05-10T14:27:04.614Z,77.06
2023-05-10T14:28:04.761Z,77.06
2023-05-10T14:29:04.802Z,77.06
2023-05-10T14:30:04.933Z,77.02
2023-05-10T14:31:04.959Z,77.06
2023-05-10T14:32:05.088Z,76.86
2023-05-10T14:33:05.215Z,76.31
2023-05-10T14:34:05.245Z,76.21
2023-05-10T14:35:05.352Z,76.31
2023-05-10T14:36:05.415Z,76.31
2023-05-10T14:37:05.566Z,76.41
2023-05-10T14:38:05.682Z,76.31
2023-05-10T14:39:16.453Z,76.01
2023-05-10T14:40:05.793Z,76.01
2023-05-10T14:41:05.843Z,76.10
2023-05-10T14:42:05.898Z,75.90
2023-05-10T14:43:06.041Z,76.01
2023-05-10T14:44:06.051Z,76.01
2023-05-10T14:45:06.157Z,76.01
2023-05-10T14:46:06.277Z,76.04
2023-05-10T14:47:06.322Z,75.94
2023-05-10T14:48:06.472Z,75.60
2023-05-10T14:49:06.518Z,75.73
2023-05-10T14:50:06.617Z,75.94
2023-05-10T14:51:06.700Z,76.04
2023-05-10T14:52:06.781Z,76.14
2023-05-10T14:53:06.852Z,76.04
2023-05-10T14:54:06.896Z,76.04
2023-05-10T14:55:06.990Z,75.94
2023-05-10T14:56:07.093Z,75.94
2023-05-10T14:57:07.190Z,75.94
2023-05-10T14:58:07.270Z,75.02
2023-05-10T14:59:07.337Z,75.23
2023-05-10T15:00:07.440Z,75.43
2023-05-10T15:01:07.630Z,75.43
2023-05-10T15:02:07.544Z,75.43
2023-05-10T15:03:07.766Z,74.92
2023-05-10T15:04:07.774Z,75.02
2023-05-10T15:05:07.803Z,75.23
2023-05-10T15:06:07.851Z,75.33
2023-05-10T15:07:07.962Z,75.02
2023-05-10T15:08:08.033Z,75.12
2023-05-10T15:09:08.088Z,75.33
2023-05-10T15:10:08.191Z,75.43
2023-05-10T15:11:08.281Z,75.43
2023-05-10T15:12:08.374Z,75.43
2023-05-10T15:13:08.507Z,75.43
2023-05-10T15:14:08.536Z,75.53
2023-05-10T15:15:08.634Z,75.43
2023-05-10T15:16:08.845Z,75.53
2023-05-10T15:17:08.805Z,75.67
2023-05-10T15:18:08.944Z,75.73
2023-05-10T15:19:09.008Z,75.87
2023-05-10T15:20:09.100Z,75.94
2023-05-10T15:21:09.128Z,75.84
2023-05-10T15:22:09.229Z,75.98
2023-05-10T15:23:09.320Z,75.98
2023-05-10T15:24:09.455Z,76.18
2023-05-10T15:25:09.506Z,76.14
2023-05-10T15:26:09.548Z,76.14
2023-05-10T15:27:09.679Z,76.14
2023-05-10T15:28:09.745Z,76.04
2023-05-10T15:29:09.930Z,75.94
2023-05-10T15:30:09.875Z,75.77
2023-05-10T15:31:09.988Z,75.26
2023-05-10T15:32:10.056Z,75.37
2023-05-10T15:33:10.125Z,75.26
2023-05-10T15:34:10.142Z,75.06
2023-05-10T15:35:10.246Z,75.06
2023-05-10T15:36:10.312Z,74.85
2023-05-10T15:37:10.458Z,74.65
2023-05-10T15:38:10.494Z,74.55
2023-05-10T15:39:10.557Z,74.15
2023-05-10T15:40:10.634Z,74.55
2023-05-10T15:41:10.794Z,74.55
2023-05-10T15:42:10.904Z,74.45
2023-05-10T15:43:10.975Z,74.35
2023-05-10T15:44:10.989Z,74.45
2023-05-10T15:45:11.151Z,74.45
2023-05-10T15:46:11.187Z,74.45
2023-05-10T15:47:12.133Z,74.24
2023-05-10T16:15:47.386Z,76.35
2023-05-10T16:16:48.611Z,76.15
2023-05-10T16:17:48.541Z,76.25
2023-05-10T16:18:48.621Z,76.15
2023-05-10T16:19:49.215Z,76.12
2023-05-10T16:56:14.212Z,76.63
2023-05-10T16:57:15.155Z,76.80
2023-05-10T17:56:10.128Z,76.97
2023-05-10T17:57:11.064Z,76.87
2023-05-10T17:58:11.164Z,76.97
2023-05-10T18:57:21.495Z,77.42
2023-05-10T18:58:22.639Z,77.42
2023-05-10T18:59:22.647Z,77.11
2023-05-10T19:00:22.617Z,77.01
2023-05-10T19:01:22.755Z,76.90
2023-05-10T19:02:22.852Z,76.87
2023-05-10T19:03:22.961Z,76.77
2023-05-10T19:04:23.017Z,76.77
2023-05-10T19:05:23.061Z,76.67
2023-05-10T19:08:26.145Z,76.32
2023-05-10T19:09:27.124Z,76.32
2023-05-10T21:34:27.745Z,80.29
2023-05-10T21:35:28.730Z,80.19
2023-05-10T21:36:28.790Z,80.19
2023-05-10T21:37:28.844Z,80.05
2023-05-10T21:38:28.909Z,79.94
2023-05-10T21:39:29.054Z,79.84
2023-05-10T21:40:29.084Z,79.60
2023-05-10T21:41:29.172Z,79.60
2023-05-10T21:42:29.240Z,79.50
2023-05-10T22:06:12.627Z,79.94
2023-05-10T22:07:13.873Z,79.91
2023-05-10T22:08:13.450Z,79.91
2023-05-10T22:09:13.483Z,79.91
2023-05-10T22:10:13.560Z,79.80
2023-05-10T22:11:13.709Z,79.57
2023-05-10T22:12:13.859Z,79.36
2023-05-10T22:13:14.484Z,79.25
2023-05-10T22:14:13.857Z,79.16
2023-05-10T22:15:13.975Z,79.05
2023-05-10T22:16:14.117Z,79.05
2023-05-10T22:17:14.105Z,78.95
2023-05-10T22:18:14.143Z,78.71
2023-05-10T22:19:14.194Z,78.71
2023-05-10T22:20:14.311Z,78.71
2023-05-10T22:21:14.403Z,78.50
2023-05-10T22:22:14.511Z,78.41
2023-05-10T22:23:14.610Z,78.30
2023-05-10T22:51:27.862Z,79.53
2023-05-10T22:55:38.478Z,79.57
2023-05-10T22:56:39.387Z,79.68
2023-05-10T22:57:39.427Z,79.78
2023-05-10T22:58:39.526Z,79.74
2023-05-10T22:59:39.647Z,79.74
2023-05-10T23:00:39.641Z,79.64
2023-05-10T23:01:39.899Z,79.50
2023-05-10T23:02:39.886Z,79.60
2023-05-10T23:03:39.978Z,79.60
2023-05-10T23:04:39.975Z,79.39
2023-05-10T23:20:43.916Z,79.53
2023-05-10T23:21:45.141Z,79.64
2023-05-10T23:24:30.841Z,79.74
2023-05-10T23:25:31.763Z,79.74
2023-05-10T23:26:31.917Z,79.74
2023-05-10T23:27:31.893Z,79.74
2023-05-10T23:28:32.014Z,79.50
2023-05-10T23:29:32.070Z,79.39
2023-05-10T23:30:32.106Z,79.39
2023-05-10T23:31:32.233Z,79.29
2023-05-10T23:32:32.313Z,79.29
2023-05-10T23:33:32.364Z,79.19
2023-05-10T23:34:46.127Z,79.16
2023-05-10T23:35:32.603Z,79.05
2023-05-10T23:36:32.777Z,79.05
2023-05-10T23:37:32.761Z,78.95
2023-05-10T23:38:32.797Z,78.75
2023-05-10T23:39:32.861Z,78.75
2023-05-10T23:40:32.929Z,78.64
2023-05-10T23:41:33.086Z,78.54
2023-05-10T23:42:33.175Z,78.44
2023-05-10T23:43:33.212Z,78.44
2023-05-10T23:47:15.526Z,78.54
2023-05-10T23:48:16.343Z,78.44
2023-05-10T23:49:16.654Z,78.44
2023-05-10T23:50:16.666Z,78.44
